sensor_id;sensor_type;location;lat;lon;timestamp;pressure;altitude;pressure_sealevel;temperature;humidity
6413;BME280;3239;48.714;9.472;2023-07-13T00:00:07;98162.59;;;20.61;100.00
6413;BME280;3239;48.714;9.472;2023-07-13T00:02:35;98166.31;;;20.44;100.00
6413;BME280;3239;48.714;9.472;2023-07-13T00:05:02;98177.19;;;20.31;100.00
6413;BME280;3239;48.714;9.472;2023-07-13T00:07:27;98178.16;;;20.45;100.00
6413;BME280;3239;48.714;9.472;2023-07-13T00:09:53;98179.16;;;20.59;100.00
6413;BME280;3239;48.714;9.472;2023-07-13T00:12:30;98183.69;;;20.64;100.00
6413;BME280;3239;48.714;9.472;2023-07-13T00:14:58;98170.81;;;20.59;100.00
6413;BME280;3239;48.714;9.472;2023-07-13T00:17:26;98176.63;;;20.63;100.00
6413;BME280;3239;48.714;9.472;2023-07-13T00:19:52;98164.78;;;20.62;100.00
6413;BME280;3239;48.714;9.472;2023-07-13T00:22:19;98160.78;;;20.65;100.00
6413;BME280;3239;48.714;9.472;2023-07-13T00:24:45;98142.16;;;20.68;100.00
6413;BME280;3239;48.714;9.472;2023-07-13T00:27:12;98135.03;;;20.55;100.00
6413;BME280;3239;48.714;9.472;2023-07-13T00:29:38;98128.75;;;20.55;100.00
6413;BME280;3239;48.714;9.472;2023-07-13T00:32:05;98129.75;;;20.59;100.00
6413;BME280;3239;48.714;9.472;2023-07-13T00:34:31;98140.94;;;20.50;100.00
6413;BME280;3239;48.714;9.472;2023-07-13T00:36:57;98162.22;;;20.36;100.00
6413;BME280;3239;48.714;9.472;2023-07-13T00:39:23;98180.41;;;20.27;100.00
6413;BME280;3239;48.714;9.472;2023-07-13T00:41:50;98183.06;;;20.16;100.00
6413;BME280;3239;48.714;9.472;2023-07-13T00:44:20;98179.09;;;20.28;100.00
6413;BME280;3239;48.714;9.472;2023-07-13T00:46:48;98187.16;;;20.34;100.00
6413;BME280;3239;48.714;9.472;2023-07-13T00:49:20;98165.59;;;20.34;100.00
6413;BME280;3239;48.714;9.472;2023-07-13T00:52:05;98151.09;;;20.36;100.00
6413;BME280;3239;48.714;9.472;2023-07-13T00:54:39;98159.03;;;20.30;100.00
6413;BME280;3239;48.714;9.472;2023-07-13T00:57:14;98155.97;;;20.26;100.00
6413;BME280;3239;48.714;9.472;2023-07-13T00:59:43;98150.56;;;20.28;100.00
6413;BME280;3239;48.714;9.472;2023-07-13T01:02:11;98139.56;;;20.30;100.00
6413;BME280;3239;48.714;9.472;2023-07-13T01:04:37;98142.34;;;20.30;100.00
6413;BME280;3239;48.714;9.472;2023-07-13T01:07:04;98135.31;;;20.29;100.00
6413;BME280;3239;48.714;9.472;2023-07-13T01:09:31;98133.13;;;20.27;100.00
6413;BME280;3239;48.714;9.472;2023-07-13T01:12:00;98135.91;;;20.27;100.00
6413;BME280;3239;48.714;9.472;2023-07-13T01:14:26;98130.97;;;20.16;100.00
6413;BME280;3239;48.714;9.472;2023-07-13T01:16:51;98140.13;;;20.28;100.00
6413;BME280;3239;48.714;9.472;2023-07-13T01:19:42;98159.22;;;19.94;100.00
6413;BME280;3239;48.714;9.472;2023-07-13T01:22:13;98164.50;;;19.99;100.00
6413;BME280;3239;48.714;9.472;2023-07-13T01:24:42;98164.22;;;19.95;100.00
6413;BME280;3239;48.714;9.472;2023-07-13T01:27:11;98164.66;;;19.92;100.00
6413;BME280;3239;48.714;9.472;2023-07-13T01:29:39;98160.25;;;19.89;100.00
6413;BME280;3239;48.714;9.472;2023-07-13T01:32:08;98152.50;;;19.97;100.00
6413;BME280;3239;48.714;9.472;2023-07-13T01:34:35;98147.97;;;19.92;100.00
6413;BME280;3239;48.714;9.472;2023-07-13T01:37:01;98150.19;;;19.93;100.00
6413;BME280;3239;48.714;9.472;2023-07-13T01:39:27;98154.00;;;19.88;100.00
6413;BME280;3239;48.714;9.472;2023-07-13T01:41:52;98151.03;;;19.86;100.00
6413;BME280;3239;48.714;9.472;2023-07-13T01:44:18;98146.34;;;19.89;100.00
6413;BME280;3239;48.714;9.472;2023-07-13T01:46:44;98144.19;;;19.87;100.00
6413;BME280;3239;48.714;9.472;2023-07-13T01:49:09;98149.75;;;19.87;100.00
6413;BME280;3239;48.714;9.472;2023-07-13T01:51:35;98149.28;;;19.81;100.00
6413;BME280;3239;48.714;9.472;2023-07-13T01:54:01;98161.19;;;19.72;100.00
6413;BME280;3239;48.714;9.472;2023-07-13T01:56:27;98160.75;;;19.66;100.00
6413;BME280;3239;48.714;9.472;2023-07-13T01:58:53;98162.78;;;19.66;100.00
6413;BME280;3239;48.714;9.472;2023-07-13T02:01:19;98161.91;;;19.63;100.00
6413;BME280;3239;48.714;9.472;2023-07-13T02:03:44;98164.84;;;19.56;100.00
6413;BME280;3239;48.714;9.472;2023-07-13T02:06:10;98157.97;;;19.47;100.00
6413;BME280;3239;48.714;9.472;2023-07-13T02:08:37;98155.47;;;19.51;100.00
6413;BME280;3239;48.714;9.472;2023-07-13T02:11:03;98164.69;;;19.44;100.00
6413;BME280;3239;48.714;9.472;2023-07-13T02:13:29;98163.38;;;19.45;100.00
6413;BME280;3239;48.714;9.472;2023-07-13T02:15:55;98163.97;;;19.44;100.00
6413;BME280;3239;48.714;9.472;2023-07-13T02:18:21;98169.97;;;19.40;100.00
6413;BME280;3239;48.714;9.472;2023-07-13T02:20:46;98175.06;;;19.44;100.00
6413;BME280;3239;48.714;9.472;2023-07-13T02:23:12;98190.56;;;19.37;100.00
6413;BME280;3239;48.714;9.472;2023-07-13T02:25:38;98185.59;;;19.36;100.00
6413;BME280;3239;48.714;9.472;2023-07-13T02:28:04;98200.94;;;19.37;100.00
6413;BME280;3239;48.714;9.472;2023-07-13T02:30:30;98214.09;;;19.36;100.00
6413;BME280;3239;48.714;9.472;2023-07-13T02:32:57;98213.94;;;19.34;100.00
6413;BME280;3239;48.714;9.472;2023-07-13T02:35:23;98228.28;;;19.31;100.00
6413;BME280;3239;48.714;9.472;2023-07-13T02:37:49;98222.84;;;19.23;100.00
6413;BME280;3239;48.714;9.472;2023-07-13T02:40:15;98206.25;;;19.06;100.00
6413;BME280;3239;48.714;9.472;2023-07-13T02:42:41;98190.78;;;19.03;100.00
6413;BME280;3239;48.714;9.472;2023-07-13T03:25:38;98239.34;;;18.49;100.00
6413;BME280;3239;48.714;9.472;2023-07-13T03:28:05;98246.66;;;18.54;100.00
6413;BME280;3239;48.714;9.472;2023-07-13T03:30:31;98246.00;;;18.63;100.00
6413;BME280;3239;48.714;9.472;2023-07-13T03:32:57;98249.50;;;18.64;100.00
6413;BME280;3239;48.714;9.472;2023-07-13T03:35:23;98249.91;;;18.60;100.00
6413;BME280;3239;48.714;9.472;2023-07-13T03:37:48;98264.19;;;18.30;100.00
6413;BME280;3239;48.714;9.472;2023-07-13T03:40:14;98272.44;;;18.38;100.00
6413;BME280;3239;48.714;9.472;2023-07-13T03:42:40;98275.47;;;18.32;100.00
6413;BME280;3239;48.714;9.472;2023-07-13T03:45:07;98276.00;;;18.31;100.00
6413;BME280;3239;48.714;9.472;2023-07-13T03:47:33;98278.00;;;18.38;100.00
6413;BME280;3239;48.714;9.472;2023-07-13T03:49:58;98276.25;;;18.42;100.00
6413;BME280;3239;48.714;9.472;2023-07-13T03:52:24;98272.63;;;18.49;100.00
6413;BME280;3239;48.714;9.472;2023-07-13T03:54:50;98273.28;;;18.57;100.00
6413;BME280;3239;48.714;9.472;2023-07-13T03:57:16;98276.19;;;18.59;100.00
6413;BME280;3239;48.714;9.472;2023-07-13T03:59:41;98276.84;;;18.24;100.00
6413;BME280;3239;48.714;9.472;2023-07-13T04:02:07;98283.78;;;18.32;100.00
6413;BME280;3239;48.714;9.472;2023-07-13T04:04:33;98282.28;;;18.31;100.00
6413;BME280;3239;48.714;9.472;2023-07-13T04:06:59;98279.94;;;18.28;100.00
6413;BME280;3239;48.714;9.472;2023-07-13T04:09:25;98279.94;;;18.28;100.00
6413;BME280;3239;48.714;9.472;2023-07-13T04:11:51;98282.72;;;18.28;100.00
6413;BME280;3239;48.714;9.472;2023-07-13T04:14:17;98286.50;;;18.06;100.00
6413;BME280;3239;48.714;9.472;2023-07-13T04:16:43;98293.63;;;18.26;100.00
6413;BME280;3239;48.714;9.472;2023-07-13T04:19:10;98288.75;;;18.34;100.00
6413;BME280;3239;48.714;9.472;2023-07-13T04:21:36;98289.16;;;18.30;100.00
6413;BME280;3239;48.714;9.472;2023-07-13T04:24:03;98295.94;;;18.03;100.00
6413;BME280;3239;48.714;9.472;2023-07-13T04:26:29;98299.75;;;18.07;100.00
6413;BME280;3239;48.714;9.472;2023-07-13T04:28:56;98315.09;;;18.25;100.00
6413;BME280;3239;48.714;9.472;2023-07-13T04:31:22;98306.63;;;18.40;100.00
6413;BME280;3239;48.714;9.472;2023-07-13T04:33:49;98299.91;;;18.43;100.00
6413;BME280;3239;48.714;9.472;2023-07-13T04:36:16;98305.03;;;18.64;100.00
6413;BME280;3239;48.714;9.472;2023-07-13T04:38:42;98298.47;;;18.69;100.00
6413;BME280;3239;48.714;9.472;2023-07-13T04:41:09;98294.22;;;18.68;100.00
6413;BME280;3239;48.714;9.472;2023-07-13T04:43:35;98295.16;;;18.80;100.00
6413;BME280;3239;48.714;9.472;2023-07-13T04:46:07;98296.16;;;18.48;100.00
6413;BME280;3239;48.714;9.472;2023-07-13T04:48:34;98297.50;;;18.57;100.00
6413;BME280;3239;48.714;9.472;2023-07-13T04:51:00;98292.06;;;18.49;100.00
6413;BME280;3239;48.714;9.472;2023-07-13T04:53:27;98285.16;;;18.41;100.00
6413;BME280;3239;48.714;9.472;2023-07-13T04:55:54;98290.22;;;18.18;100.00
6413;BME280;3239;48.714;9.472;2023-07-13T04:58:20;98288.13;;;17.92;100.00
6413;BME280;3239;48.714;9.472;2023-07-13T05:00:47;98295.78;;;18.18;100.00
6413;BME280;3239;48.714;9.472;2023-07-13T05:03:13;98286.56;;;18.32;100.00
6413;BME280;3239;48.714;9.472;2023-07-13T05:05:39;98283.78;;;18.32;100.00
6413;BME280;3239;48.714;9.472;2023-07-13T05:08:04;98289.16;;;18.30;100.00
6413;BME280;3239;48.714;9.472;2023-07-13T05:10:30;98284.34;;;18.48;100.00
6413;BME280;3239;48.714;9.472;2023-07-13T05:12:56;98286.47;;;18.40;100.00
6413;BME280;3239;48.714;9.472;2023-07-13T05:15:22;98292.91;;;18.42;100.00
6413;BME280;3239;48.714;9.472;2023-07-13T05:17:49;98287.09;;;18.31;100.00
6413;BME280;3239;48.714;9.472;2023-07-13T05:20:17;98285.63;;;18.47;100.00
6413;BME280;3239;48.714;9.472;2023-07-13T05:22:43;98290.19;;;18.52;100.00
6413;BME280;3239;48.714;9.472;2023-07-13T05:25:09;98291.97;;;18.57;100.00
6413;BME280;3239;48.714;9.472;2023-07-13T05:27:35;98291.25;;;18.56;100.00
6413;BME280;3239;48.714;9.472;2023-07-13T05:30:03;98294.38;;;18.70;100.00
6413;BME280;3239;48.714;9.472;2023-07-13T05:32:29;98295.28;;;18.72;100.00
6413;BME280;3239;48.714;9.472;2023-07-13T05:34:55;98298.16;;;18.65;100.00
6413;BME280;3239;48.714;9.472;2023-07-13T05:37:21;98302.28;;;18.73;100.00
6413;BME280;3239;48.714;9.472;2023-07-13T05:39:47;98310.09;;;18.58;100.00
6413;BME280;3239;48.714;9.472;2023-07-13T05:42:13;98320.59;;;18.59;100.00
6413;BME280;3239;48.714;9.472;2023-07-13T05:44:38;98320.44;;;18.57;100.00
6413;BME280;3239;48.714;9.472;2023-07-13T05:47:05;98324.75;;;18.68;100.00
6413;BME280;3239;48.714;9.472;2023-07-13T05:49:31;98328.53;;;18.89;100.00
6413;BME280;3239;48.714;9.472;2023-07-13T05:51:57;98329.28;;;18.90;100.00
6413;BME280;3239;48.714;9.472;2023-07-13T05:54:23;98315.06;;;18.86;100.00
6413;BME280;3239;48.714;9.472;2023-07-13T05:56:48;98306.13;;;19.14;100.00
6413;BME280;3239;48.714;9.472;2023-07-13T05:59:14;98299.69;;;19.57;100.00
6413;BME280;3239;48.714;9.472;2023-07-13T06:01:41;98293.38;;;19.47;100.00
6413;BME280;3239;48.714;9.472;2023-07-13T06:04:07;98303.47;;;19.42;100.00
6413;BME280;3239;48.714;9.472;2023-07-13T06:06:33;98291.91;;;19.46;100.00
6413;BME280;3239;48.714;9.472;2023-07-13T06:08:58;98291.66;;;19.15;100.00
6413;BME280;3239;48.714;9.472;2023-07-13T06:11:27;98297.69;;;19.21;100.00
6413;BME280;3239;48.714;9.472;2023-07-13T06:13:55;98280.22;;;19.47;100.00
6413;BME280;3239;48.714;9.472;2023-07-13T06:16:22;98278.22;;;19.67;100.00
6413;BME280;3239;48.714;9.472;2023-07-13T06:18:48;98291.13;;;20.10;100.00
6413;BME280;3239;48.714;9.472;2023-07-13T06:21:19;98293.97;;;20.69;100.00
6413;BME280;3239;48.714;9.472;2023-07-13T06:23:48;98298.50;;;20.83;100.00
6413;BME280;3239;48.714;9.472;2023-07-13T06:26:14;98295.56;;;21.52;100.00
6413;BME280;3239;48.714;9.472;2023-07-13T06:28:41;98288.66;;;21.53;100.00
6413;BME280;3239;48.714;9.472;2023-07-13T06:31:09;98295.66;;;21.12;100.00
6413;BME280;3239;48.714;9.472;2023-07-13T06:33:35;98293.94;;;20.88;100.00
6413;BME280;3239;48.714;9.472;2023-07-13T06:36:03;98301.50;;;21.37;100.00
6413;BME280;3239;48.714;9.472;2023-07-13T06:38:30;98295.84;;;22.19;100.00
6413;BME280;3239;48.714;9.472;2023-07-13T06:40:57;98288.38;;;22.00;100.00
6413;BME280;3239;48.714;9.472;2023-07-13T06:43:22;98288.94;;;22.20;100.00
6413;BME280;3239;48.714;9.472;2023-07-13T06:45:50;98294.19;;;23.25;100.00
6413;BME280;3239;48.714;9.472;2023-07-13T06:48:18;98287.81;;;22.78;100.00
6413;BME280;3239;48.714;9.472;2023-07-13T06:50:45;98288.19;;;23.65;100.00
6413;BME280;3239;48.714;9.472;2023-07-13T06:53:12;98290.53;;;22.23;100.00
6413;BME280;3239;48.714;9.472;2023-07-13T06:55:38;98296.66;;;22.86;100.00
6413;BME280;3239;48.714;9.472;2023-07-13T06:58:05;98294.44;;;22.62;100.00
6413;BME280;3239;48.714;9.472;2023-07-13T07:00:31;98296.81;;;23.00;100.00
6413;BME280;3239;48.714;9.472;2023-07-13T07:02:57;98291.66;;;22.62;100.00
6413;BME280;3239;48.714;9.472;2023-07-13T07:05:23;98299.13;;;23.03;100.00
6413;BME280;3239;48.714;9.472;2023-07-13T07:07:51;98300.66;;;22.39;100.00
6413;BME280;3239;48.714;9.472;2023-07-13T07:10:18;98304.13;;;22.49;100.00
6413;BME280;3239;48.714;9.472;2023-07-13T07:12:45;98293.09;;;23.30;100.00
6413;BME280;3239;48.714;9.472;2023-07-13T07:15:11;98288.16;;;23.76;100.00
6413;BME280;3239;48.714;9.472;2023-07-13T07:17:37;98294.25;;;23.73;100.00
6413;BME280;3239;48.714;9.472;2023-07-13T07:20:04;98298.53;;;25.10;100.00
6413;BME280;3239;48.714;9.472;2023-07-13T07:22:31;98305.63;;;26.35;100.00
6413;BME280;3239;48.714;9.472;2023-07-13T07:24:57;98297.56;;;25.06;100.00
6413;BME280;3239;48.714;9.472;2023-07-13T07:27:24;98296.69;;;25.69;93.42
6413;BME280;3239;48.714;9.472;2023-07-13T07:29:50;98291.16;;;26.27;82.50
6413;BME280;3239;48.714;9.472;2023-07-13T07:32:16;98293.59;;;24.97;86.68
6413;BME280;3239;48.714;9.472;2023-07-13T07:34:42;98298.13;;;24.77;96.42
6413;BME280;3239;48.714;9.472;2023-07-13T07:37:12;98304.19;;;25.64;91.39
6413;BME280;3239;48.714;9.472;2023-07-13T07:39:38;98304.38;;;25.82;87.23
6413;BME280;3239;48.714;9.472;2023-07-13T07:42:04;98302.66;;;25.23;84.01
6413;BME280;3239;48.714;9.472;2023-07-13T07:44:31;98313.38;;;26.50;82.32
6413;BME280;3239;48.714;9.472;2023-07-13T07:46:58;98305.75;;;26.23;84.26
6413;BME280;3239;48.714;9.472;2023-07-13T07:49:24;98315.75;;;27.46;70.29
6413;BME280;3239;48.714;9.472;2023-07-13T07:51:50;98306.53;;;25.70;75.14
6413;BME280;3239;48.714;9.472;2023-07-13T07:54:16;98301.97;;;24.84;82.89
6413;BME280;3239;48.714;9.472;2023-07-13T07:56:42;98302.13;;;24.99;80.74
6413;BME280;3239;48.714;9.472;2023-07-13T07:59:08;98299.56;;;25.17;89.05
6413;BME280;3239;48.714;9.472;2023-07-13T08:01:35;98292.59;;;26.70;73.17
6413;BME280;3239;48.714;9.472;2023-07-13T08:04:01;98315.09;;;25.72;71.97
6413;BME280;3239;48.714;9.472;2023-07-13T08:06:27;98311.06;;;26.46;68.80
6413;BME280;3239;48.714;9.472;2023-07-13T08:08:53;98309.78;;;25.37;67.22
6413;BME280;3239;48.714;9.472;2023-07-13T08:11:21;98314.53;;;25.21;72.90
6413;BME280;3239;48.714;9.472;2023-07-13T08:13:47;98304.66;;;25.88;76.69
6413;BME280;3239;48.714;9.472;2023-07-13T08:16:14;98310.06;;;25.16;77.08
6413;BME280;3239;48.714;9.472;2023-07-13T08:18:40;98302.59;;;25.34;76.43
6413;BME280;3239;48.714;9.472;2023-07-13T08:21:07;98306.44;;;25.81;80.65
6413;BME280;3239;48.714;9.472;2023-07-13T08:23:34;98301.03;;;25.18;75.76
6413;BME280;3239;48.714;9.472;2023-07-13T08:26:00;98310.50;;;25.51;72.48
6413;BME280;3239;48.714;9.472;2023-07-13T08:28:27;98308.19;;;26.02;77.71
6413;BME280;3239;48.714;9.472;2023-07-13T08:30:53;98303.44;;;25.77;68.46
6413;BME280;3239;48.714;9.472;2023-07-13T08:33:21;98315.59;;;25.28;71.48
6413;BME280;3239;48.714;9.472;2023-07-13T08:35:50;98310.22;;;27.33;55.94
6413;BME280;3239;48.714;9.472;2023-07-13T08:38:17;98310.16;;;25.99;56.46
6413;BME280;3239;48.714;9.472;2023-07-13T08:40:43;98308.09;;;25.19;65.66
6413;BME280;3239;48.714;9.472;2023-07-13T08:43:18;98305.91;;;25.17;63.42
6413;BME280;3239;48.714;9.472;2023-07-13T08:51:51;98308.94;;;24.83;58.25
6413;BME280;3239;48.714;9.472;2023-07-13T08:57:14;98307.91;;;26.38;54.09
6413;BME280;3239;48.714;9.472;2023-07-13T08:59:40;98304.69;;;27.19;57.14
6413;BME280;3239;48.714;9.472;2023-07-13T09:16:26;98311.03;;;29.80;42.12
6413;BME280;3239;48.714;9.472;2023-07-13T09:18:58;98303.59;;;28.23;41.85
6413;BME280;3239;48.714;9.472;2023-07-13T09:21:34;98313.44;;;28.57;46.79
6413;BME280;3239;48.714;9.472;2023-07-13T09:24:38;98314.16;;;29.69;42.52
6413;BME280;3239;48.714;9.472;2023-07-13T09:27:21;98309.25;;;29.69;38.09
6413;BME280;3239;48.714;9.472;2023-07-13T09:30:30;98307.13;;;28.94;42.74
6413;BME280;3239;48.714;9.472;2023-07-13T09:32:58;98306.69;;;27.01;43.05
6413;BME280;3239;48.714;9.472;2023-07-13T09:35:27;98314.97;;;26.10;47.62
6413;BME280;3239;48.714;9.472;2023-07-13T09:38:01;98302.47;;;25.86;48.46
6413;BME280;3239;48.714;9.472;2023-07-13T09:43:15;98309.31;;;27.59;51.21
6413;BME280;3239;48.714;9.472;2023-07-13T09:45:46;98312.19;;;28.80;44.31
6413;BME280;3239;48.714;9.472;2023-07-13T09:48:15;98309.78;;;29.66;40.34
6413;BME280;3239;48.714;9.472;2023-07-13T09:50:42;98301.31;;;29.27;43.34
6413;BME280;3239;48.714;9.472;2023-07-13T09:53:31;98311.63;;;29.57;39.92
6413;BME280;3239;48.714;9.472;2023-07-13T09:55:56;98303.84;;;28.82;40.58
6413;BME280;3239;48.714;9.472;2023-07-13T09:58:26;98308.88;;;29.03;39.89
6413;BME280;3239;48.714;9.472;2023-07-13T10:01:03;98307.88;;;29.92;41.10
6413;BME280;3239;48.714;9.472;2023-07-13T10:03:35;98307.00;;;30.71;36.71
6413;BME280;3239;48.714;9.472;2023-07-13T10:06:21;98303.16;;;31.31;34.83
6413;BME280;3239;48.714;9.472;2023-07-13T10:08:49;98314.78;;;30.49;39.10
6413;BME280;3239;48.714;9.472;2023-07-13T10:13:57;98305.09;;;30.78;35.04
6413;BME280;3239;48.714;9.472;2023-07-13T10:16:28;98309.09;;;30.06;37.74
6413;BME280;3239;48.714;9.472;2023-07-13T10:19:11;98310.34;;;30.66;36.69
6413;BME280;3239;48.714;9.472;2023-07-13T10:21:53;98310.69;;;30.33;35.79
6413;BME280;3239;48.714;9.472;2023-07-13T10:24:30;98309.66;;;30.89;35.70
6413;BME280;3239;48.714;9.472;2023-07-13T10:30:20;98298.03;;;28.78;40.19
6413;BME280;3239;48.714;9.472;2023-07-13T10:32:49;98297.44;;;28.29;42.98
6413;BME280;3239;48.714;9.472;2023-07-13T10:35:18;98303.41;;;27.53;40.57
6413;BME280;3239;48.714;9.472;2023-07-13T10:38:03;98293.78;;;27.12;41.60
6413;BME280;3239;48.714;9.472;2023-07-13T10:43:45;98293.78;;;28.42;39.14
6413;BME280;3239;48.714;9.472;2023-07-13T10:46:19;98290.16;;;28.39;41.01
6413;BME280;3239;48.714;9.472;2023-07-13T10:48:51;98294.38;;;28.38;42.73
6413;BME280;3239;48.714;9.472;2023-07-13T10:51:18;98290.25;;;28.41;42.90
6413;BME280;3239;48.714;9.472;2023-07-13T10:56:39;98293.75;;;28.24;42.74
6413;BME280;3239;48.714;9.472;2023-07-13T10:59:25;98293.09;;;30.34;40.15
6413;BME280;3239;48.714;9.472;2023-07-13T11:04:46;98292.56;;;27.79;40.12
6413;BME280;3239;48.714;9.472;2023-07-13T11:07:26;98279.34;;;28.34;38.20
6413;BME280;3239;48.714;9.472;2023-07-13T11:09:56;98277.44;;;28.38;40.90
6413;BME280;3239;48.714;9.472;2023-07-13T11:25:42;98265.66;;;28.09;43.17
6413;BME280;3239;48.714;9.472;2023-07-13T11:36:16;98268.66;;;29.02;43.72
6413;BME280;3239;48.714;9.472;2023-07-13T11:41:53;98251.44;;;27.72;45.24
6413;BME280;3239;48.714;9.472;2023-07-13T11:44:22;98251.44;;;27.08;47.64
6413;BME280;3239;48.714;9.472;2023-07-13T11:46:53;98261.41;;;28.43;46.03
6413;BME280;3239;48.714;9.472;2023-07-13T11:49:22;98255.72;;;28.41;43.93
6413;BME280;3239;48.714;9.472;2023-07-13T11:51:48;98256.59;;;29.00;43.29
6413;BME280;3239;48.714;9.472;2023-07-13T11:54:34;98248.91;;;29.61;40.69
6413;BME280;3239;48.714;9.472;2023-07-13T11:57:32;98250.94;;;28.45;39.40
6413;BME280;3239;48.714;9.472;2023-07-13T12:00:11;98251.19;;;28.88;41.83
6413;BME280;3239;48.714;9.472;2023-07-13T12:02:42;98255.66;;;29.52;42.21
6413;BME280;3239;48.714;9.472;2023-07-13T12:05:13;98245.91;;;29.76;37.61
6413;BME280;3239;48.714;9.472;2023-07-13T12:07:40;98246.25;;;29.26;38.11
6413;BME280;3239;48.714;9.472;2023-07-13T12:10:24;98243.91;;;28.29;44.09
6413;BME280;3239;48.714;9.472;2023-07-13T12:13:04;98240.13;;;28.57;44.24
6413;BME280;3239;48.714;9.472;2023-07-13T12:15:41;98256.38;;;29.13;44.99
6413;BME280;3239;48.714;9.472;2023-07-13T12:18:20;98261.59;;;28.84;42.70
6413;BME280;3239;48.714;9.472;2023-07-13T12:20:48;98258.16;;;29.44;38.54
6413;BME280;3239;48.714;9.472;2023-07-13T12:23:24;98253.41;;;28.72;38.52
6413;BME280;3239;48.714;9.472;2023-07-13T12:25:51;98247.41;;;29.38;42.63
6413;BME280;3239;48.714;9.472;2023-07-13T12:30:59;98246.72;;;29.40;40.76
6413;BME280;3239;48.714;9.472;2023-07-13T12:33:30;98244.06;;;29.24;41.54
6413;BME280;3239;48.714;9.472;2023-07-13T12:36:02;98239.75;;;28.84;43.45
6413;BME280;3239;48.714;9.472;2023-07-13T12:38:31;98256.25;;;28.55;42.77
6413;BME280;3239;48.714;9.472;2023-07-13T12:40:58;98244.94;;;29.09;41.73
6413;BME280;3239;48.714;9.472;2023-07-13T12:43:25;98252.97;;;29.17;44.10
6413;BME280;3239;48.714;9.472;2023-07-13T12:46:03;98239.06;;;28.66;43.94
6413;BME280;3239;48.714;9.472;2023-07-13T12:48:37;98240.53;;;28.87;43.93
6413;BME280;3239;48.714;9.472;2023-07-13T12:51:03;98238.78;;;28.41;44.76
6413;BME280;3239;48.714;9.472;2023-07-13T12:53:30;98242.00;;;28.51;41.35
6413;BME280;3239;48.714;9.472;2023-07-13T12:56:02;98240.06;;;28.20;42.57
6413;BME280;3239;48.714;9.472;2023-07-13T12:58:40;98231.41;;;29.06;42.66
6413;BME280;3239;48.714;9.472;2023-07-13T13:01:13;98239.19;;;29.46;42.08
6413;BME280;3239;48.714;9.472;2023-07-13T13:03:46;98242.63;;;29.43;41.66
6413;BME280;3239;48.714;9.472;2023-07-13T13:08:42;98237.09;;;29.66;39.49
6413;BME280;3239;48.714;9.472;2023-07-13T13:11:09;98226.72;;;29.94;39.42
6413;BME280;3239;48.714;9.472;2023-07-13T13:13:35;98237.59;;;29.61;39.92
6413;BME280;3239;48.714;9.472;2023-07-13T13:18:56;98235.97;;;27.73;38.43
6413;BME280;3239;48.714;9.472;2023-07-13T13:21:25;98230.16;;;28.54;38.38
6413;BME280;3239;48.714;9.472;2023-07-13T13:23:52;98235.78;;;29.50;41.41
6413;BME280;3239;48.714;9.472;2023-07-13T13:26:21;98237.50;;;29.37;38.19
6413;BME280;3239;48.714;9.472;2023-07-13T13:28:47;98224.63;;;28.76;37.84
6413;BME280;3239;48.714;9.472;2023-07-13T13:31:14;98235.06;;;29.69;37.71
6413;BME280;3239;48.714;9.472;2023-07-13T13:33:45;98237.06;;;29.86;35.62
6413;BME280;3239;48.714;9.472;2023-07-13T13:36:20;98228.25;;;30.19;35.03
6413;BME280;3239;48.714;9.472;2023-07-13T13:38:48;98229.94;;;29.63;36.09
6413;BME280;3239;48.714;9.472;2023-07-13T13:41:15;98233.06;;;30.14;36.30
6413;BME280;3239;48.714;9.472;2023-07-13T13:43:42;98223.19;;;29.94;37.48
6413;BME280;3239;48.714;9.472;2023-07-13T13:46:21;98226.69;;;29.32;37.83
6413;BME280;3239;48.714;9.472;2023-07-13T13:48:50;98226.63;;;29.30;37.74
6413;BME280;3239;48.714;9.472;2023-07-13T13:51:22;98225.09;;;29.46;37.85
6413;BME280;3239;48.714;9.472;2023-07-13T13:53:49;98233.19;;;29.36;36.99
6413;BME280;3239;48.714;9.472;2023-07-13T13:56:17;98228.94;;;29.16;37.41
6413;BME280;3239;48.714;9.472;2023-07-13T13:58:43;98228.94;;;29.35;36.65
